sensor_id;sensor_type;location;lat;lon;timestamp;pressure;altitude;pressure_sealevel;temperature;humidity
13581;BME280;6861;46.170;7.222;2023-05-11T00:00:43;95858.22;;;13.25;52.65
13581;BME280;6861;46.170;7.222;2023-05-11T00:03:11;95853.31;;;13.19;53.75
13581;BME280;6861;46.170;7.222;2023-05-11T00:05:40;95852.84;;;13.11;53.40
13581;BME280;6861;46.170;7.222;2023-05-11T00:08:08;95850.56;;;13.05;53.96
13581;BME280;6861;46.170;7.222;2023-05-11T00:10:36;95848.31;;;12.98;54.20
13581;BME280;6861;46.170;7.222;2023-05-11T00:13:04;95844.97;;;12.93;54.54
13581;BME280;6861;46.170;7.222;2023-05-11T00:15:32;95851.00;;;12.93;53.62
13581;BME280;6861;46.170;7.222;2023-05-11T00:18:01;95845.47;;;12.95;54.07
13581;BME280;6861;46.170;7.222;2023-05-11T00:20:30;95849.88;;;12.99;54.14
13581;BME280;6861;46.170;7.222;2023-05-11T00:22:58;95849.78;;;13.04;53.65
13581;BME280;6861;46.170;7.222;2023-05-11T00:25:26;95852.28;;;13.14;53.70
13581;BME280;6861;46.170;7.222;2023-05-11T00:27:54;95844.88;;;13.22;52.70
13581;BME280;6861;46.170;7.222;2023-05-11T00:30:22;95845.00;;;13.30;52.65
13581;BME280;6861;46.170;7.222;2023-05-11T00:32:50;95838.34;;;13.38;52.50
13581;BME280;6861;46.170;7.222;2023-05-11T00:35:20;95834.56;;;13.44;52.16
13581;BME280;6861;46.170;7.222;2023-05-11T00:37:48;95829.31;;;13.44;53.21
13581;BME280;6861;46.170;7.222;2023-05-11T00:40:16;95825.34;;;13.47;52.49
13581;BME280;6861;46.170;7.222;2023-05-11T00:42:45;95828.66;;;13.52;52.01
13581;BME280;6861;46.170;7.222;2023-05-11T00:45:13;95833.44;;;13.50;52.40
13581;BME280;6861;46.170;7.222;2023-05-11T00:47:41;95819.00;;;13.48;52.51
13581;BME280;6861;46.170;7.222;2023-05-11T00:50:10;95821.91;;;13.46;52.55
13581;BME280;6861;46.170;7.222;2023-05-11T00:52:40;95819.56;;;13.44;53.02
13581;BME280;6861;46.170;7.222;2023-05-11T00:55:09;95820.34;;;13.45;52.83
13581;BME280;6861;46.170;7.222;2023-05-11T00:57:38;95823.19;;;13.49;52.33
13581;BME280;6861;46.170;7.222;2023-05-11T01:00:07;95819.72;;;13.53;52.49
13581;BME280;6861;46.170;7.222;2023-05-11T01:02:36;95822.75;;;13.60;52.16
13581;BME280;6861;46.170;7.222;2023-05-11T01:05:05;95828.44;;;13.67;51.87
13581;BME280;6861;46.170;7.222;2023-05-11T01:07:39;95827.84;;;13.70;52.08
13581;BME280;6861;46.170;7.222;2023-05-11T01:10:18;95827.56;;;13.72;52.55
13581;BME280;6861;46.170;7.222;2023-05-11T01:12:54;95826.50;;;13.73;52.17
13581;BME280;6861;46.170;7.222;2023-05-11T01:15:31;95818.31;;;13.74;51.98
13581;BME280;6861;46.170;7.222;2023-05-11T01:18:10;95818.31;;;13.74;51.86
13581;BME280;6861;46.170;7.222;2023-05-11T01:20:42;95817.34;;;13.70;51.59
13581;BME280;6861;46.170;7.222;2023-05-11T01:26:51;95816.28;;;13.71;51.59
13581;BME280;6861;46.170;7.222;2023-05-11T01:29:42;95826.72;;;13.76;51.82
13581;BME280;6861;46.170;7.222;2023-05-11T01:32:18;95826.63;;;13.82;51.73
13581;BME280;6861;46.170;7.222;2023-05-11T01:34:51;95824.00;;;13.82;51.37
13581;BME280;6861;46.170;7.222;2023-05-11T01:37:21;95820.88;;;13.80;51.03
13581;BME280;6861;46.170;7.222;2023-05-11T01:39:52;95816.19;;;13.76;51.89
13581;BME280;6861;46.170;7.222;2023-05-11T01:42:25;95818.69;;;13.68;51.64
13581;BME280;6861;46.170;7.222;2023-05-11T01:44:56;95811.47;;;13.60;52.35
13581;BME280;6861;46.170;7.222;2023-05-11T01:47:28;95813.03;;;13.61;51.86
13581;BME280;6861;46.170;7.222;2023-05-11T01:49:57;95819.84;;;13.62;52.53
13581;BME280;6861;46.170;7.222;2023-05-11T01:52:29;95810.19;;;13.57;52.57
13581;BME280;6861;46.170;7.222;2023-05-11T01:54:59;95819.13;;;13.56;52.32
13581;BME280;6861;46.170;7.222;2023-05-11T01:57:29;95810.97;;;13.58;52.32
13581;BME280;6861;46.170;7.222;2023-05-11T01:59:58;95813.81;;;13.61;52.04
13581;BME280;6861;46.170;7.222;2023-05-11T02:02:30;95814.00;;;13.65;51.97
13581;BME280;6861;46.170;7.222;2023-05-11T02:04:59;95807.97;;;13.64;51.77
13581;BME280;6861;46.170;7.222;2023-05-11T02:07:28;95815.88;;;13.64;52.02
13581;BME280;6861;46.170;7.222;2023-05-11T02:09:58;95809.69;;;13.55;52.65
13581;BME280;6861;46.170;7.222;2023-05-11T02:12:27;95806.56;;;13.53;51.90
13581;BME280;6861;46.170;7.222;2023-05-11T02:14:57;95804.50;;;13.50;52.62
13581;BME280;6861;46.170;7.222;2023-05-11T02:17:28;95797.28;;;13.42;52.52
13581;BME280;6861;46.170;7.222;2023-05-11T02:19:58;95797.06;;;13.38;52.67
13581;BME280;6861;46.170;7.222;2023-05-11T02:22:28;95798.69;;;13.34;53.15
13581;BME280;6861;46.170;7.222;2023-05-11T02:24:57;95804.59;;;13.26;53.17
13581;BME280;6861;46.170;7.222;2023-05-11T02:27:25;95800.19;;;13.22;53.47
13581;BME280;6861;46.170;7.222;2023-05-11T02:29:53;95798.06;;;13.24;53.34
13581;BME280;6861;46.170;7.222;2023-05-11T02:32:23;95800.69;;;13.24;53.39
13581;BME280;6861;46.170;7.222;2023-05-11T02:34:59;95795.50;;;13.19;53.21
13581;BME280;6861;46.170;7.222;2023-05-11T02:37:29;95798.44;;;13.17;53.09
13581;BME280;6861;46.170;7.222;2023-05-11T02:40:01;95796.56;;;13.18;52.62
13581;BME280;6861;46.170;7.222;2023-05-11T02:42:35;95795.03;;;13.17;53.06
13581;BME280;6861;46.170;7.222;2023-05-11T02:45:06;95805.00;;;13.14;53.62
13581;BME280;6861;46.170;7.222;2023-05-11T02:47:38;95792.38;;;13.17;53.59
13581;BME280;6861;46.170;7.222;2023-05-11T02:50:11;95798.56;;;13.26;53.21
13581;BME280;6861;46.170;7.222;2023-05-11T02:52:46;95793.25;;;13.31;53.46
13581;BME280;6861;46.170;7.222;2023-05-11T02:55:16;95795.50;;;13.37;53.01
13581;BME280;6861;46.170;7.222;2023-05-11T02:57:45;95784.78;;;13.34;53.67
13581;BME280;6861;46.170;7.222;2023-05-11T03:00:13;95791.69;;;13.30;53.74
13581;BME280;6861;46.170;7.222;2023-05-11T03:02:43;95789.63;;;13.27;53.52
13581;BME280;6861;46.170;7.222;2023-05-11T03:05:13;95784.06;;;13.28;52.89
13581;BME280;6861;46.170;7.222;2023-05-11T03:07:41;95787.00;;;13.27;52.87
13581;BME280;6861;46.170;7.222;2023-05-11T03:10:10;95782.03;;;13.25;53.28
13581;BME280;6861;46.170;7.222;2023-05-11T03:12:38;95783.28;;;13.28;53.06
13581;BME280;6861;46.170;7.222;2023-05-11T03:15:07;95776.31;;;13.37;53.35
13581;BME280;6861;46.170;7.222;2023-05-11T03:17:38;95788.81;;;13.45;53.48
13581;BME280;6861;46.170;7.222;2023-05-11T03:20:09;95780.84;;;13.50;53.06
13581;BME280;6861;46.170;7.222;2023-05-11T03:22:39;95784.19;;;13.56;52.52
13581;BME280;6861;46.170;7.222;2023-05-11T03:25:08;95782.84;;;13.58;52.11
13581;BME280;6861;46.170;7.222;2023-05-11T03:27:38;95780.50;;;13.57;52.21
13581;BME280;6861;46.170;7.222;2023-05-11T03:30:09;95777.56;;;13.58;52.61
13581;BME280;6861;46.170;7.222;2023-05-11T03:32:38;95777.06;;;13.56;52.37
13581;BME280;6861;46.170;7.222;2023-05-11T03:35:07;95774.66;;;13.60;52.36
13581;BME280;6861;46.170;7.222;2023-05-11T03:37:36;95784.81;;;13.66;52.21
13581;BME280;6861;46.170;7.222;2023-05-11T03:40:07;95777.63;;;13.72;52.61
13581;BME280;6861;46.170;7.222;2023-05-11T03:42:37;95776.25;;;13.74;52.51
13581;BME280;6861;46.170;7.222;2023-05-11T03:45:08;95768.44;;;13.69;52.09
13581;BME280;6861;46.170;7.222;2023-05-11T03:47:38;95763.00;;;13.66;52.04
13581;BME280;6861;46.170;7.222;2023-05-11T03:50:09;95759.66;;;13.60;52.23
13581;BME280;6861;46.170;7.222;2023-05-11T03:52:38;95754.78;;;13.54;52.29
13581;BME280;6861;46.170;7.222;2023-05-11T03:55:09;95759.03;;;13.50;52.90
13581;BME280;6861;46.170;7.222;2023-05-11T03:57:37;95756.72;;;13.48;52.81
13581;BME280;6861;46.170;7.222;2023-05-11T04:00:07;95752.03;;;13.45;52.85
13581;BME280;6861;46.170;7.222;2023-05-11T04:02:37;95753.38;;;13.42;52.76
13581;BME280;6861;46.170;7.222;2023-05-11T04:05:06;95766.44;;;13.48;52.95
13581;BME280;6861;46.170;7.222;2023-05-11T04:07:35;95758.84;;;13.46;52.45
13581;BME280;6861;46.170;7.222;2023-05-11T04:10:05;95752.59;;;13.42;53.39
13581;BME280;6861;46.170;7.222;2023-05-11T04:12:35;95759.56;;;13.33;53.51
13581;BME280;6861;46.170;7.222;2023-05-11T04:15:03;95765.91;;;13.32;53.57
13581;BME280;6861;46.170;7.222;2023-05-11T04:17:32;95760.91;;;13.30;53.18
13581;BME280;6861;46.170;7.222;2023-05-11T04:20:00;95769.00;;;13.34;53.47
13581;BME280;6861;46.170;7.222;2023-05-11T04:22:28;95761.13;;;13.34;53.17
13581;BME280;6861;46.170;7.222;2023-05-11T04:24:56;95760.56;;;13.37;53.63
13581;BME280;6861;46.170;7.222;2023-05-11T04:27:24;95762.13;;;13.38;52.56
13581;BME280;6861;46.170;7.222;2023-05-11T04:29:54;95759.06;;;13.31;53.12
13581;BME280;6861;46.170;7.222;2023-05-11T04:32:22;95766.53;;;13.24;53.85
13581;BME280;6861;46.170;7.222;2023-05-11T04:34:50;95767.31;;;13.24;53.63
13581;BME280;6861;46.170;7.222;2023-05-11T04:37:18;95762.28;;;13.28;53.92
13581;BME280;6861;46.170;7.222;2023-05-11T04:39:46;95766.47;;;13.29;53.27
13581;BME280;6861;46.170;7.222;2023-05-11T04:42:15;95768.81;;;13.30;53.25
13581;BME280;6861;46.170;7.222;2023-05-11T04:44:43;95762.00;;;13.29;53.61
13581;BME280;6861;46.170;7.222;2023-05-11T04:47:13;95767.53;;;13.28;53.54
13581;BME280;6861;46.170;7.222;2023-05-11T04:49:41;95756.81;;;13.24;54.20
13581;BME280;6861;46.170;7.222;2023-05-11T04:52:09;95755.03;;;13.20;53.35
13581;BME280;6861;46.170;7.222;2023-05-11T04:54:37;95759.72;;;13.23;53.26
13581;BME280;6861;46.170;7.222;2023-05-11T04:57:05;95753.25;;;13.34;53.64
13581;BME280;6861;46.170;7.222;2023-05-11T04:59:34;95763.09;;;13.42;53.87
13581;BME280;6861;46.170;7.222;2023-05-11T05:02:02;95764.50;;;13.53;52.61
13581;BME280;6861;46.170;7.222;2023-05-11T05:04:31;95758.50;;;13.66;53.34
13581;BME280;6861;46.170;7.222;2023-05-11T05:07:02;95762.03;;;13.75;53.11
13581;BME280;6861;46.170;7.222;2023-05-11T05:09:30;95767.13;;;13.86;53.35
13581;BME280;6861;46.170;7.222;2023-05-11T05:11:58;95775.19;;;13.89;52.33
13581;BME280;6861;46.170;7.222;2023-05-11T05:14:27;95758.63;;;13.89;52.64
13581;BME280;6861;46.170;7.222;2023-05-11T05:16:55;95767.50;;;13.93;52.19
13581;BME280;6861;46.170;7.222;2023-05-11T05:19:23;95771.91;;;13.84;52.32
13581;BME280;6861;46.170;7.222;2023-05-11T05:21:53;95765.75;;;13.74;53.46
13581;BME280;6861;46.170;7.222;2023-05-11T05:24:21;95767.28;;;13.75;52.45
13581;BME280;6861;46.170;7.222;2023-05-11T05:26:49;95765.38;;;13.81;52.54
13581;BME280;6861;46.170;7.222;2023-05-11T05:29:17;95760.00;;;13.86;53.40
13581;BME280;6861;46.170;7.222;2023-05-11T05:31:45;95769.06;;;13.94;52.56
13581;BME280;6861;46.170;7.222;2023-05-11T05:34:13;95761.00;;;14.04;52.89
13581;BME280;6861;46.170;7.222;2023-05-11T05:36:42;95767.34;;;14.17;52.42
13581;BME280;6861;46.170;7.222;2023-05-11T05:39:12;95765.38;;;14.22;52.53
13581;BME280;6861;46.170;7.222;2023-05-11T05:41:40;95760.03;;;14.27;52.48
13581;BME280;6861;46.170;7.222;2023-05-11T05:44:08;95767.53;;;14.34;52.59
13581;BME280;6861;46.170;7.222;2023-05-11T05:46:36;95773.19;;;14.41;52.18
13581;BME280;6861;46.170;7.222;2023-05-11T05:49:05;95770.97;;;14.48;52.33
13581;BME280;6861;46.170;7.222;2023-05-11T05:51:33;95758.97;;;14.56;52.19
13581;BME280;6861;46.170;7.222;2023-05-11T05:54:01;95762.88;;;14.58;51.65
13581;BME280;6861;46.170;7.222;2023-05-11T05:56:31;95759.53;;;14.66;52.06
13581;BME280;6861;46.170;7.222;2023-05-11T05:59:00;95759.31;;;14.76;51.84
13581;BME280;6861;46.170;7.222;2023-05-11T06:01:29;95764.66;;;14.85;51.31
13581;BME280;6861;46.170;7.222;2023-05-11T06:03:57;95765.41;;;14.99;51.80
13581;BME280;6861;46.170;7.222;2023-05-11T06:06:25;95763.50;;;15.14;51.16
13581;BME280;6861;46.170;7.222;2023-05-11T06:08:53;95771.50;;;15.22;51.08
13581;BME280;6861;46.170;7.222;2023-05-11T06:11:21;95766.81;;;15.19;50.65
13581;BME280;6861;46.170;7.222;2023-05-11T06:13:51;95769.88;;;15.13;50.79
13581;BME280;6861;46.170;7.222;2023-05-11T06:16:19;95759.88;;;14.87;51.67
13581;BME280;6861;46.170;7.222;2023-05-11T06:18:47;95753.00;;;14.64;51.77
13581;BME280;6861;46.170;7.222;2023-05-11T06:21:16;95748.94;;;14.58;51.61
13581;BME280;6861;46.170;7.222;2023-05-11T06:23:44;95752.25;;;14.50;52.30
13581;BME280;6861;46.170;7.222;2023-05-11T06:26:12;95748.75;;;14.54;52.05
13581;BME280;6861;46.170;7.222;2023-05-11T06:28:40;95740.22;;;14.71;52.28
13581;BME280;6861;46.170;7.222;2023-05-11T06:31:09;95746.09;;;14.90;52.46
13581;BME280;6861;46.170;7.222;2023-05-11T06:33:38;95741.75;;;15.08;51.91
13581;BME280;6861;46.170;7.222;2023-05-11T06:36:07;95747.94;;;15.26;51.61
13581;BME280;6861;46.170;7.222;2023-05-11T06:38:35;95751.31;;;15.40;51.43
13581;BME280;6861;46.170;7.222;2023-05-11T06:41:03;95745.19;;;15.53;50.75
13581;BME280;6861;46.170;7.222;2023-05-11T06:43:32;95738.47;;;15.69;51.25
13581;BME280;6861;46.170;7.222;2023-05-11T06:46:00;95735.91;;;15.87;50.62
13581;BME280;6861;46.170;7.222;2023-05-11T06:48:30;95739.94;;;15.84;50.43
13581;BME280;6861;46.170;7.222;2023-05-11T06:50:58;95730.16;;;15.85;49.83
13581;BME280;6861;46.170;7.222;2023-05-11T06:53:26;95730.50;;;15.92;50.14
13581;BME280;6861;46.170;7.222;2023-05-11T06:55:55;95729.50;;;16.10;50.34
13581;BME280;6861;46.170;7.222;2023-05-11T06:58:23;95725.53;;;16.30;49.80
13581;BME280;6861;46.170;7.222;2023-05-11T07:00:51;95722.59;;;16.49;49.32
13581;BME280;6861;46.170;7.222;2023-05-11T07:03:19;95733.03;;;16.62;48.90
13581;BME280;6861;46.170;7.222;2023-05-11T07:05:48;95724.38;;;16.70;48.98
13581;BME280;6861;46.170;7.222;2023-05-11T07:08:16;95731.72;;;16.82;48.67
13581;BME280;6861;46.170;7.222;2023-05-11T07:10:44;95727.84;;;16.97;47.90
13581;BME280;6861;46.170;7.222;2023-05-11T07:13:12;95725.19;;;17.23;47.58
13581;BME280;6861;46.170;7.222;2023-05-11T07:15:41;95736.63;;;17.61;47.46
13581;BME280;6861;46.170;7.222;2023-05-11T07:18:09;95725.91;;;18.13;46.85
13581;BME280;6861;46.170;7.222;2023-05-11T07:20:37;95720.44;;;18.48;45.95
13581;BME280;6861;46.170;7.222;2023-05-11T07:23:07;95724.25;;;18.88;45.11
13581;BME280;6861;46.170;7.222;2023-05-11T07:25:36;95717.09;;;19.22;44.35
13581;BME280;6861;46.170;7.222;2023-05-11T07:28:04;95705.84;;;19.25;44.11
13581;BME280;6861;46.170;7.222;2023-05-11T07:30:32;95711.66;;;19.39;43.66
13581;BME280;6861;46.170;7.222;2023-05-11T07:33:00;95713.94;;;19.28;43.35
13581;BME280;6861;46.170;7.222;2023-05-11T07:35:29;95711.53;;;19.15;43.68
13581;BME280;6861;46.170;7.222;2023-05-11T07:37:57;95709.31;;;19.05;43.66
13581;BME280;6861;46.170;7.222;2023-05-11T07:40:27;95705.31;;;18.98;44.26
13581;BME280;6861;46.170;7.222;2023-05-11T07:42:55;95698.84;;;18.87;44.01
13581;BME280;6861;46.170;7.222;2023-05-11T07:45:23;95693.28;;;18.80;43.50
13581;BME280;6861;46.170;7.222;2023-05-11T07:47:51;95692.69;;;18.95;43.43
13581;BME280;6861;46.170;7.222;2023-05-11T07:50:19;95685.66;;;19.66;42.40
13581;BME280;6861;46.170;7.222;2023-05-11T07:52:50;95686.25;;;20.32;41.42
13581;BME280;6861;46.170;7.222;2023-05-11T07:55:18;95683.44;;;20.77;40.40
13581;BME280;6861;46.170;7.222;2023-05-11T07:57:52;95677.13;;;21.38;39.36
13581;BME280;6861;46.170;7.222;2023-05-11T08:00:21;95683.19;;;21.82;38.81
13581;BME280;6861;46.170;7.222;2023-05-11T08:02:49;95672.88;;;21.96;38.10
13581;BME280;6861;46.170;7.222;2023-05-11T08:05:19;95679.41;;;21.83;37.92
13581;BME280;6861;46.170;7.222;2023-05-11T08:07:47;95681.63;;;21.81;37.59
13581;BME280;6861;46.170;7.222;2023-05-11T08:10:15;95681.28;;;21.98;37.09
13581;BME280;6861;46.170;7.222;2023-05-11T08:12:43;95670.97;;;22.63;36.19
13581;BME280;6861;46.170;7.222;2023-05-11T08:15:13;95675.66;;;23.24;35.38
13581;BME280;6861;46.170;7.222;2023-05-11T08:17:41;95670.00;;;23.48;34.53
13581;BME280;6861;46.170;7.222;2023-05-11T08:20:12;95659.66;;;23.47;34.42
13581;BME280;6861;46.170;7.222;2023-05-11T08:22:40;95659.50;;;23.17;35.09
13581;BME280;6861;46.170;7.222;2023-05-11T08:25:08;95660.28;;;23.17;35.14
13581;BME280;6861;46.170;7.222;2023-05-11T08:27:37;95646.78;;;23.72;34.47
13581;BME280;6861;46.170;7.222;2023-05-11T08:30:06;95643.34;;;24.47;33.51
13581;BME280;6861;46.170;7.222;2023-05-11T08:32:39;95645.03;;;25.22;32.57
13581;BME280;6861;46.170;7.222;2023-05-11T08:35:10;95645.03;;;26.03;31.65
13581;BME280;6861;46.170;7.222;2023-05-11T08:37:38;95651.91;;;26.01;31.55
13581;BME280;6861;46.170;7.222;2023-05-11T08:40:09;95642.25;;;25.48;31.60
13581;BME280;6861;46.170;7.222;2023-05-11T08:42:44;95639.19;;;24.79;31.72
13581;BME280;6861;46.170;7.222;2023-05-11T08:45:13;95640.16;;;24.38;32.19
13581;BME280;6861;46.170;7.222;2023-05-11T08:47:44;95630.59;;;24.10;32.74
13581;BME280;6861;46.170;7.222;2023-05-11T08:50:13;95628.63;;;24.07;32.03
13581;BME280;6861;46.170;7.222;2023-05-11T08:52:41;95627.81;;;24.03;32.25
13581;BME280;6861;46.170;7.222;2023-05-11T08:55:09;95624.56;;;23.68;32.30
13581;BME280;6861;46.170;7.222;2023-05-11T08:57:39;95629.56;;;23.27;32.38
13581;BME280;6861;46.170;7.222;2023-05-11T09:00:10;95627.97;;;23.03;32.77
13581;BME280;6861;46.170;7.222;2023-05-11T09:02:39;95615.91;;;22.90;33.09
13581;BME280;6861;46.170;7.222;2023-05-11T09:05:09;95613.41;;;22.62;33.27
13581;BME280;6861;46.170;7.222;2023-05-11T09:07:39;95617.59;;;22.24;33.00
13581;BME280;6861;46.170;7.222;2023-05-11T09:10:09;95612.53;;;21.88;33.71
13581;BME280;6861;46.170;7.222;2023-05-11T09:12:39;95622.63;;;21.63;34.32
13581;BME280;6861;46.170;7.222;2023-05-11T09:15:08;95608.53;;;21.63;34.16
13581;BME280;6861;46.170;7.222;2023-05-11T09:17:36;95608.06;;;21.92;33.84
13581;BME280;6861;46.170;7.222;2023-05-11T09:20:06;95601.44;;;22.17;33.17
13581;BME280;6861;46.170;7.222;2023-05-11T09:22:42;95599.63;;;22.21;32.79
13581;BME280;6861;46.170;7.222;2023-05-11T09:25:11;95605.56;;;21.99;32.88
13581;BME280;6861;46.170;7.222;2023-05-11T09:27:40;95603.59;;;21.96;33.25
13581;BME280;6861;46.170;7.222;2023-05-11T09:30:10;95601.94;;;22.23;32.77
13581;BME280;6861;46.170;7.222;2023-05-11T09:32:46;95599.88;;;22.71;32.02
13581;BME280;6861;46.170;7.222;2023-05-11T09:35:19;95588.31;;;23.47;30.85
13581;BME280;6861;46.170;7.222;2023-05-11T09:38:04;95593.84;;;24.60;29.68
13581;BME280;6861;46.170;7.222;2023-05-11T09:40:34;95598.19;;;25.87;28.59
13581;BME280;6861;46.170;7.222;2023-05-11T09:43:15;95583.38;;;26.69;27.62
13581;BME280;6861;46.170;7.222;2023-05-11T09:45:44;95580.03;;;27.00;27.39
13581;BME280;6861;46.170;7.222;2023-05-11T09:48:26;95584.94;;;26.81;26.72
13581;BME280;6861;46.170;7.222;2023-05-11T09:51:00;95583.00;;;26.74;27.57
13581;BME280;6861;46.170;7.222;2023-05-11T09:53:38;95571.72;;;26.36;27.30
13581;BME280;6861;46.170;7.222;2023-05-11T09:56:09;95570.75;;;26.07;28.06
13581;BME280;6861;46.170;7.222;2023-05-11T09:58:48;95566.69;;;25.73;28.37
13581;BME280;6861;46.170;7.222;2023-05-11T10:01:18;95578.75;;;25.53;28.26
13581;BME280;6861;46.170;7.222;2023-05-11T10:03:54;95568.88;;;25.60;28.14
13581;BME280;6861;46.170;7.222;2023-05-11T10:06:43;95569.19;;;25.99;27.81
13581;BME280;6861;46.170;7.222;2023-05-11T10:09:14;95560.47;;;26.20;27.95
13581;BME280;6861;46.170;7.222;2023-05-11T10:11:43;95554.16;;;26.57;27.09
13581;BME280;6861;46.170;7.222;2023-05-11T10:14:13;95560.03;;;26.94;27.09
13581;BME280;6861;46.170;7.222;2023-05-11T10:16:42;95552.81;;;27.20;26.22
13581;BME280;6861;46.170;7.222;2023-05-11T10:19:11;95548.94;;;26.99;27.15
13581;BME280;6861;46.170;7.222;2023-05-11T10:21:40;95556.44;;;26.51;26.91
13581;BME280;6861;46.170;7.222;2023-05-11T10:24:09;95567.66;;;26.05;27.64
13581;BME280;6861;46.170;7.222;2023-05-11T10:26:40;95566.00;;;25.83;27.75
13581;BME280;6861;46.170;7.222;2023-05-11T10:29:09;95564.28;;;25.61;28.36
13581;BME280;6861;46.170;7.222;2023-05-11T10:31:37;95573.66;;;25.40;28.49
13581;BME280;6861;46.170;7.222;2023-05-11T10:34:09;95561.63;;;25.20;28.78
13581;BME280;6861;46.170;7.222;2023-05-11T10:36:37;95560.69;;;25.02;28.89
13581;BME280;6861;46.170;7.222;2023-05-11T10:39:06;95567.34;;;24.81;29.18
13581;BME280;6861;46.170;7.222;2023-05-11T10:41:44;95559.97;;;24.41;29.24
13581;BME280;6861;46.170;7.222;2023-05-11T10:44:49;95556.56;;;23.88;30.11
13581;BME280;6861;46.170;7.222;2023-05-11T10:47:46;95558.44;;;23.38;30.45
13581;BME280;6861;46.170;7.222;2023-05-11T10:50:47;95562.47;;;23.06;30.95
13581;BME280;6861;46.170;7.222;2023-05-11T10:53:40;95558.34;;;22.89;31.68
13581;BME280;6861;46.170;7.222;2023-05-11T10:56:25;95555.94;;;22.65;31.50
13581;BME280;6861;46.170;7.222;2023-05-11T10:59:18;95555.03;;;22.38;31.86
13581;BME280;6861;46.170;7.222;2023-05-11T11:01:49;95552.31;;;22.34;31.95
13581;BME280;6861;46.170;7.222;2023-05-11T11:04:17;95544.22;;;22.31;32.24
13581;BME280;6861;46.170;7.222;2023-05-11T11:06:46;95550.97;;;22.24;32.14
13581;BME280;6861;46.170;7.222;2023-05-11T11:09:15;95539.44;;;22.20;32.28
13581;BME280;6861;46.170;7.222;2023-05-11T11:11:44;95526.69;;;22.30;32.25
13581;BME280;6861;46.170;7.222;2023-05-11T11:14:16;95537.56;;;22.40;32.27
13581;BME280;6861;46.170;7.222;2023-05-11T11:19:46;95525.63;;;22.92;31.81
13581;BME280;6861;46.170;7.222;2023-05-11T11:22:42;95517.63;;;23.15;31.61
13581;BME280;6861;46.170;7.222;2023-05-11T11:25:14;95524.03;;;23.33;31.52
13581;BME280;6861;46.170;7.222;2023-05-11T11:27:56;95518.47;;;23.45;31.66
13581;BME280;6861;46.170;7.222;2023-05-11T11:30:27;95512.97;;;23.58;31.37
13581;BME280;6861;46.170;7.222;2023-05-11T11:33:30;95511.84;;;23.59;31.13
13581;BME280;6861;46.170;7.222;2023-05-11T11:36:00;95507.28;;;23.59;31.34
13581;BME280;6861;46.170;7.222;2023-05-11T11:38:29;95497.81;;;23.65;32.12
13581;BME280;6861;46.170;7.222;2023-05-11T11:40:58;95499.38;;;23.66;32.35
13581;BME280;6861;46.170;7.222;2023-05-11T11:43:28;95498.66;;;23.69;32.17
13581;BME280;6861;46.170;7.222;2023-05-11T11:46:24;95493.56;;;23.87;32.51
13581;BME280;6861;46.170;7.222;2023-05-11T11:49:05;95495.47;;;24.16;31.82
13581;BME280;6861;46.170;7.222;2023-05-11T11:51:34;95484.31;;;24.41;31.77
13581;BME280;6861;46.170;7.222;2023-05-11T11:54:06;95487.44;;;24.46;31.39
13581;BME280;6861;46.170;7.222;2023-05-11T11:56:42;95479.53;;;24.57;31.35
13581;BME280;6861;46.170;7.222;2023-05-11T11:59:11;95484.16;;;24.60;31.09
13581;BME280;6861;46.170;7.222;2023-05-11T12:01:43;95483.69;;;24.55;31.08
13581;BME280;6861;46.170;7.222;2023-05-11T12:04:25;95480.50;;;24.42;30.53
13581;BME280;6861;46.170;7.222;2023-05-11T12:06:57;95481.16;;;24.32;30.86
13581;BME280;6861;46.170;7.222;2023-05-11T12:09:25;95478.78;;;24.27;30.98
13581;BME280;6861;46.170;7.222;2023-05-11T12:11:54;95469.63;;;24.28;30.84
13581;BME280;6861;46.170;7.222;2023-05-11T12:14:24;95471.66;;;24.38;30.38
13581;BME280;6861;46.170;7.222;2023-05-11T12:17:02;95458.34;;;24.41;30.09
13581;BME280;6861;46.170;7.222;2023-05-11T12:19:30;95462.91;;;24.41;30.04
13581;BME280;6861;46.170;7.222;2023-05-11T12:21:58;95463.59;;;24.34;29.92
13581;BME280;6861;46.170;7.222;2023-05-11T12:24:27;95459.75;;;24.32;29.92
13581;BME280;6861;46.170;7.222;2023-05-11T12:26:55;95453.69;;;24.35;30.01
13581;BME280;6861;46.170;7.222;2023-05-11T12:29:24;95455.13;;;24.29;30.11
13581;BME280;6861;46.170;7.222;2023-05-11T12:31:52;95446.31;;;24.25;30.17
13581;BME280;6861;46.170;7.222;2023-05-11T12:34:23;95438.56;;;24.16;30.23
13581;BME280;6861;46.170;7.222;2023-05-11T12:36:52;95443.47;;;24.10;30.09
13581;BME280;6861;46.170;7.222;2023-05-11T12:39:24;95441.84;;;24.02;30.02
13581;BME280;6861;46.170;7.222;2023-05-11T12:41:54;95444.59;;;24.09;30.12
13581;BME280;6861;46.170;7.222;2023-05-11T12:44:24;95437.44;;;24.17;30.04
13581;BME280;6861;46.170;7.222;2023-05-11T12:46:52;95431.41;;;24.24;29.97
13581;BME280;6861;46.170;7.222;2023-05-11T12:49:23;95435.38;;;24.37;29.99
13581;BME280;6861;46.170;7.222;2023-05-11T12:52:00;95423.94;;;24.40;29.83
13581;BME280;6861;46.170;7.222;2023-05-11T12:54:31;95420.09;;;24.37;29.58
13581;BME280;6861;46.170;7.222;2023-05-11T12:57:01;95407.00;;;24.29;29.47
13581;BME280;6861;46.170;7.222;2023-05-11T12:59:32;95404.91;;;24.11;29.19
13581;BME280;6861;46.170;7.222;2023-05-11T13:02:09;95399.66;;;23.89;29.70
13581;BME280;6861;46.170;7.222;2023-05-11T13:04:40;95407.81;;;23.69;29.74
13581;BME280;6861;46.170;7.222;2023-05-11T13:07:10;95397.63;;;23.52;29.85
13581;BME280;6861;46.170;7.222;2023-05-11T13:09:39;95399.81;;;23.43;29.62
13581;BME280;6861;46.170;7.222;2023-05-11T13:12:09;95393.63;;;23.35;30.09
13581;BME280;6861;46.170;7.222;2023-05-11T13:14:38;95396.69;;;23.37;30.68
13581;BME280;6861;46.170;7.222;2023-05-11T13:17:07;95381.50;;;23.45;30.89
13581;BME280;6861;46.170;7.222;2023-05-11T13:19:35;95385.38;;;23.47;30.97
13581;BME280;6861;46.170;7.222;2023-05-11T13:22:10;95395.22;;;23.43;30.91
13581;BME280;6861;46.170;7.222;2023-05-11T13:24:38;95385.72;;;23.46;31.33
13581;BME280;6861;46.170;7.222;2023-05-11T13:27:06;95380.78;;;23.48;31.15
13581;BME280;6861;46.170;7.222;2023-05-11T13:29:34;95383.81;;;23.46;30.79
13581;BME280;6861;46.170;7.222;2023-05-11T13:32:06;95379.38;;;23.54;31.12
13581;BME280;6861;46.170;7.222;2023-05-11T13:34:34;95380.97;;;23.59;30.54